sensor_id;sensor_type;location;lat;lon;timestamp;P1;durP1;ratioP1;P2;durP2;ratioP2
67757;SDS011;54562;47.620;18.786;2023-12-20T00:01:47;44.70;;;12.80;;
67757;SDS011;54562;47.620;18.786;2023-12-20T00:04:56;37.30;;;12.20;;
67757;SDS011;54562;47.620;18.786;2023-12-20T00:08:05;37.90;;;13.40;;
67757;SDS011;54562;47.620;18.786;2023-12-20T00:11:14;33.20;;;12.10;;
67757;SDS011;54562;47.620;18.786;2023-12-20T00:14:24;33.70;;;10.70;;
67757;SDS011;54562;47.620;18.786;2023-12-20T00:17:32;29.40;;;11.50;;
67757;SDS011;54562;47.620;18.786;2023-12-20T00:20:41;25.40;;;11.90;;
67757;SDS011;54562;47.620;18.786;2023-12-20T00:23:49;24.00;;;11.60;;
67757;SDS011;54562;47.620;18.786;2023-12-20T00:26:58;23.40;;;12.70;;
67757;SDS011;54562;47.620;18.786;2023-12-20T00:30:08;21.70;;;11.60;;
67757;SDS011;54562;47.620;18.786;2023-12-20T00:33:18;26.10;;;13.90;;
67757;SDS011;54562;47.620;18.786;2023-12-20T00:36:26;25.90;;;11.90;;
67757;SDS011;54562;47.620;18.786;2023-12-20T00:39:35;25.40;;;12.50;;
67757;SDS011;54562;47.620;18.786;2023-12-20T00:42:45;29.90;;;15.20;;
67757;SDS011;54562;47.620;18.786;2023-12-20T00:45:55;24.80;;;13.90;;
67757;SDS011;54562;47.620;18.786;2023-12-20T00:49:04;23.40;;;12.10;;
67757;SDS011;54562;47.620;18.786;2023-12-20T00:52:14;42.60;;;14.90;;
67757;SDS011;54562;47.620;18.786;2023-12-20T00:55:23;30.20;;;14.90;;
67757;SDS011;54562;47.620;18.786;2023-12-20T00:58:32;27.30;;;12.80;;
67757;SDS011;54562;47.620;18.786;2023-12-20T01:01:43;25.60;;;12.60;;
67757;SDS011;54562;47.620;18.786;2023-12-20T01:04:51;19.50;;;10.50;;
67757;SDS011;54562;47.620;18.786;2023-12-20T01:07:59;27.50;;;11.80;;
67757;SDS011;54562;47.620;18.786;2023-12-20T01:11:11;35.70;;;13.80;;
67757;SDS011;54562;47.620;18.786;2023-12-20T01:14:18;25.10;;;11.90;;
67757;SDS011;54562;47.620;18.786;2023-12-20T01:17:24;29.30;;;12.40;;
67757;SDS011;54562;47.620;18.786;2023-12-20T01:20:30;27.80;;;12.80;;
67757;SDS011;54562;47.620;18.786;2023-12-20T01:23:36;30.20;;;12.50;;
67757;SDS011;54562;47.620;18.786;2023-12-20T01:26:42;32.40;;;13.60;;
67757;SDS011;54562;47.620;18.786;2023-12-20T01:29:48;30.50;;;13.70;;
67757;SDS011;54562;47.620;18.786;2023-12-20T01:32:55;23.40;;;11.20;;
67757;SDS011;54562;47.620;18.786;2023-12-20T01:36:01;22.30;;;11.20;;
67757;SDS011;54562;47.620;18.786;2023-12-20T01:39:08;28.60;;;14.40;;
67757;SDS011;54562;47.620;18.786;2023-12-20T01:42:29;23.30;;;11.30;;
67757;SDS011;54562;47.620;18.786;2023-12-20T01:45:35;25.40;;;11.70;;
67757;SDS011;54562;47.620;18.786;2023-12-20T01:48:41;21.50;;;10.80;;
67757;SDS011;54562;47.620;18.786;2023-12-20T01:51:47;24.00;;;11.70;;
67757;SDS011;54562;47.620;18.786;2023-12-20T01:54:54;17.50;;;9.40;;
67757;SDS011;54562;47.620;18.786;2023-12-20T01:58:06;19.00;;;9.50;;
67757;SDS011;54562;47.620;18.786;2023-12-20T02:01:13;23.40;;;11.40;;
67757;SDS011;54562;47.620;18.786;2023-12-20T02:04:19;25.40;;;13.80;;
67757;SDS011;54562;47.620;18.786;2023-12-20T02:07:26;24.30;;;12.80;;
67757;SDS011;54562;47.620;18.786;2023-12-20T02:10:33;25.10;;;12.80;;
67757;SDS011;54562;47.620;18.786;2023-12-20T02:13:39;24.90;;;12.70;;
67757;SDS011;54562;47.620;18.786;2023-12-20T02:16:45;25.70;;;12.00;;
67757;SDS011;54562;47.620;18.786;2023-12-20T02:19:50;28.30;;;11.60;;
67757;SDS011;54562;47.620;18.786;2023-12-20T02:22:58;25.00;;;11.70;;
67757;SDS011;54562;47.620;18.786;2023-12-20T02:26:04;32.60;;;13.30;;
67757;SDS011;54562;47.620;18.786;2023-12-20T02:29:11;29.60;;;13.60;;
67757;SDS011;54562;47.620;18.786;2023-12-20T02:32:17;31.40;;;15.00;;
67757;SDS011;54562;47.620;18.786;2023-12-20T02:35:24;35.00;;;14.20;;
67757;SDS011;54562;47.620;18.786;2023-12-20T02:38:30;37.00;;;13.80;;
67757;SDS011;54562;47.620;18.786;2023-12-20T02:41:37;30.90;;;13.90;;
67757;SDS011;54562;47.620;18.786;2023-12-20T02:44:44;35.70;;;14.80;;
67757;SDS011;54562;47.620;18.786;2023-12-20T02:47:50;32.00;;;15.20;;
67757;SDS011;54562;47.620;18.786;2023-12-20T02:50:56;42.20;;;16.10;;
67757;SDS011;54562;47.620;18.786;2023-12-20T02:54:02;37.70;;;17.70;;
67757;SDS011;54562;47.620;18.786;2023-12-20T02:57:09;42.30;;;16.60;;
67757;SDS011;54562;47.620;18.786;2023-12-20T03:00:15;52.70;;;16.00;;
67757;SDS011;54562;47.620;18.786;2023-12-20T03:03:22;38.30;;;14.90;;
67757;SDS011;54562;47.620;18.786;2023-12-20T03:06:28;42.20;;;15.70;;
67757;SDS011;54562;47.620;18.786;2023-12-20T03:09:35;41.80;;;15.20;;
67757;SDS011;54562;47.620;18.786;2023-12-20T03:13:01;32.00;;;15.90;;
67757;SDS011;54562;47.620;18.786;2023-12-20T03:16:09;46.10;;;15.50;;
67757;SDS011;54562;47.620;18.786;2023-12-20T03:19:16;33.20;;;15.30;;
67757;SDS011;54562;47.620;18.786;2023-12-20T03:22:23;46.10;;;18.00;;
67757;SDS011;54562;47.620;18.786;2023-12-20T03:25:29;35.60;;;14.20;;
67757;SDS011;54562;47.620;18.786;2023-12-20T03:28:35;44.40;;;15.70;;
67757;SDS011;54562;47.620;18.786;2023-12-20T03:31:41;39.80;;;15.70;;
67757;SDS011;54562;47.620;18.786;2023-12-20T03:34:48;22.60;;;10.70;;
67757;SDS011;54562;47.620;18.786;2023-12-20T03:37:55;32.60;;;16.10;;
67757;SDS011;54562;47.620;18.786;2023-12-20T03:41:04;42.00;;;16.70;;
67757;SDS011;54562;47.620;18.786;2023-12-20T03:44:11;60.20;;;15.70;;
67757;SDS011;54562;47.620;18.786;2023-12-20T03:47:17;36.20;;;16.20;;
67757;SDS011;54562;47.620;18.786;2023-12-20T03:50:23;39.40;;;17.60;;
67757;SDS011;54562;47.620;18.786;2023-12-20T03:53:30;59.70;;;17.50;;
67757;SDS011;54562;47.620;18.786;2023-12-20T03:56:36;53.10;;;15.90;;
67757;SDS011;54562;47.620;18.786;2023-12-20T03:59:42;44.00;;;16.80;;
67757;SDS011;54562;47.620;18.786;2023-12-20T04:02:49;46.30;;;16.80;;
67757;SDS011;54562;47.620;18.786;2023-12-20T04:05:55;52.60;;;17.50;;
67757;SDS011;54562;47.620;18.786;2023-12-20T04:09:02;50.30;;;17.30;;
67757;SDS011;54562;47.620;18.786;2023-12-20T04:12:08;45.90;;;14.00;;
67757;SDS011;54562;47.620;18.786;2023-12-20T04:15:15;42.50;;;15.30;;
67757;SDS011;54562;47.620;18.786;2023-12-20T04:18:21;44.70;;;16.20;;
67757;SDS011;54562;47.620;18.786;2023-12-20T04:21:27;27.60;;;13.20;;
67757;SDS011;54562;47.620;18.786;2023-12-20T04:24:33;34.30;;;15.10;;
67757;SDS011;54562;47.620;18.786;2023-12-20T04:27:39;34.90;;;14.40;;
67757;SDS011;54562;47.620;18.786;2023-12-20T04:30:46;38.80;;;14.40;;
67757;SDS011;54562;47.620;18.786;2023-12-20T04:33:53;23.50;;;11.10;;
67757;SDS011;54562;47.620;18.786;2023-12-20T04:36:59;27.40;;;12.70;;
67757;SDS011;54562;47.620;18.786;2023-12-20T04:40:06;30.70;;;13.90;;
67757;SDS011;54562;47.620;18.786;2023-12-20T04:43:14;34.20;;;15.10;;
67757;SDS011;54562;47.620;18.786;2023-12-20T04:46:20;38.10;;;15.80;;
67757;SDS011;54562;47.620;18.786;2023-12-20T04:49:26;40.00;;;14.80;;
67757;SDS011;54562;47.620;18.786;2023-12-20T04:52:32;37.20;;;14.40;;
67757;SDS011;54562;47.620;18.786;2023-12-20T04:55:38;39.90;;;14.80;;
67757;SDS011;54562;47.620;18.786;2023-12-20T04:58:44;32.80;;;14.60;;
67757;SDS011;54562;47.620;18.786;2023-12-20T05:01:51;39.40;;;16.00;;
67757;SDS011;54562;47.620;18.786;2023-12-20T05:04:58;38.00;;;16.40;;
67757;SDS011;54562;47.620;18.786;2023-12-20T05:08:04;40.80;;;15.70;;
67757;SDS011;54562;47.620;18.786;2023-12-20T05:11:11;33.70;;;15.00;;
67757;SDS011;54562;47.620;18.786;2023-12-20T05:14:18;35.60;;;15.70;;
67757;SDS011;54562;47.620;18.786;2023-12-20T05:17:24;41.50;;;14.90;;
67757;SDS011;54562;47.620;18.786;2023-12-20T05:20:30;42.50;;;14.60;;
67757;SDS011;54562;47.620;18.786;2023-12-20T05:23:36;37.80;;;14.50;;
67757;SDS011;54562;47.620;18.786;2023-12-20T05:26:42;37.70;;;13.90;;
67757;SDS011;54562;47.620;18.786;2023-12-20T05:29:51;34.50;;;14.80;;
67757;SDS011;54562;47.620;18.786;2023-12-20T05:36:05;30.40;;;11.80;;
67757;SDS011;54562;47.620;18.786;2023-12-20T05:39:15;34.00;;;13.20;;
67757;SDS011;54562;47.620;18.786;2023-12-20T05:42:20;35.30;;;14.60;;
67757;SDS011;54562;47.620;18.786;2023-12-20T05:45:27;32.80;;;13.20;;
67757;SDS011;54562;47.620;18.786;2023-12-20T05:48:33;33.60;;;15.50;;
67757;SDS011;54562;47.620;18.786;2023-12-20T05:51:39;28.00;;;12.50;;
67757;SDS011;54562;47.620;18.786;2023-12-20T05:54:45;35.90;;;15.30;;
67757;SDS011;54562;47.620;18.786;2023-12-20T05:57:51;32.10;;;14.70;;
67757;SDS011;54562;47.620;18.786;2023-12-20T06:00:58;37.70;;;12.20;;
67757;SDS011;54562;47.620;18.786;2023-12-20T06:04:04;40.50;;;14.60;;
67757;SDS011;54562;47.620;18.786;2023-12-20T06:07:12;33.30;;;12.40;;
67757;SDS011;54562;47.620;18.786;2023-12-20T06:10:19;43.00;;;13.00;;
67757;SDS011;54562;47.620;18.786;2023-12-20T06:13:25;41.50;;;13.00;;
67757;SDS011;54562;47.620;18.786;2023-12-20T06:16:31;45.50;;;13.70;;
67757;SDS011;54562;47.620;18.786;2023-12-20T06:19:37;35.80;;;14.50;;
67757;SDS011;54562;47.620;18.786;2023-12-20T06:22:45;40.90;;;13.90;;
67757;SDS011;54562;47.620;18.786;2023-12-20T06:25:53;41.80;;;13.00;;
67757;SDS011;54562;47.620;18.786;2023-12-20T06:28:59;38.00;;;13.20;;
67757;SDS011;54562;47.620;18.786;2023-12-20T06:32:05;34.90;;;14.10;;
67757;SDS011;54562;47.620;18.786;2023-12-20T06:35:13;48.80;;;14.30;;
67757;SDS011;54562;47.620;18.786;2023-12-20T06:38:19;55.40;;;14.10;;
67757;SDS011;54562;47.620;18.786;2023-12-20T06:41:25;41.10;;;12.30;;
67757;SDS011;54562;47.620;18.786;2023-12-20T06:44:32;34.30;;;12.40;;
67757;SDS011;54562;47.620;18.786;2023-12-20T06:47:39;44.10;;;11.60;;
67757;SDS011;54562;47.620;18.786;2023-12-20T06:50:45;27.20;;;11.80;;
67757;SDS011;54562;47.620;18.786;2023-12-20T06:53:52;40.60;;;13.10;;
67757;SDS011;54562;47.620;18.786;2023-12-20T06:56:58;26.50;;;12.50;;
67757;SDS011;54562;47.620;18.786;2023-12-20T07:00:06;50.80;;;15.40;;
67757;SDS011;54562;47.620;18.786;2023-12-20T07:03:15;39.70;;;13.30;;
67757;SDS011;54562;47.620;18.786;2023-12-20T07:06:21;43.70;;;15.20;;
67757;SDS011;54562;47.620;18.786;2023-12-20T07:09:29;45.80;;;14.40;;
67757;SDS011;54562;47.620;18.786;2023-12-20T07:12:36;47.90;;;14.30;;
67757;SDS011;54562;47.620;18.786;2023-12-20T07:15:42;35.70;;;14.10;;
67757;SDS011;54562;47.620;18.786;2023-12-20T07:18:49;32.60;;;13.00;;
67757;SDS011;54562;47.620;18.786;2023-12-20T07:21:56;31.70;;;12.80;;
67757;SDS011;54562;47.620;18.786;2023-12-20T07:25:03;32.70;;;14.50;;
67757;SDS011;54562;47.620;18.786;2023-12-20T07:28:10;25.00;;;13.50;;
67757;SDS011;54562;47.620;18.786;2023-12-20T07:31:17;34.70;;;15.80;;
67757;SDS011;54562;47.620;18.786;2023-12-20T07:34:23;33.60;;;16.40;;
67757;SDS011;54562;47.620;18.786;2023-12-20T07:37:30;29.60;;;14.90;;
67757;SDS011;54562;47.620;18.786;2023-12-20T07:40:36;46.90;;;16.60;;
67757;SDS011;54562;47.620;18.786;2023-12-20T07:43:43;28.60;;;15.00;;
67757;SDS011;54562;47.620;18.786;2023-12-20T07:46:49;33.50;;;15.10;;
67757;SDS011;54562;47.620;18.786;2023-12-20T07:49:56;30.40;;;15.20;;
67757;SDS011;54562;47.620;18.786;2023-12-20T07:53:02;34.90;;;16.20;;
67757;SDS011;54562;47.620;18.786;2023-12-20T07:56:15;30.00;;;16.10;;
67757;SDS011;54562;47.620;18.786;2023-12-20T07:59:22;28.60;;;15.10;;
67757;SDS011;54562;47.620;18.786;2023-12-20T08:02:35;30.90;;;15.20;;
67757;SDS011;54562;47.620;18.786;2023-12-20T08:09:54;27.10;;;13.40;;
67757;SDS011;54562;47.620;18.786;2023-12-20T08:13:07;30.80;;;14.80;;
67757;SDS011;54562;47.620;18.786;2023-12-20T08:16:20;27.20;;;15.50;;
67757;SDS011;54562;47.620;18.786;2023-12-20T08:19:35;32.00;;;16.30;;
67757;SDS011;54562;47.620;18.786;2023-12-20T08:22:47;32.90;;;16.00;;
67757;SDS011;54562;47.620;18.786;2023-12-20T08:26:07;33.10;;;16.70;;
67757;SDS011;54562;47.620;18.786;2023-12-20T08:29:15;33.90;;;15.90;;
67757;SDS011;54562;47.620;18.786;2023-12-20T08:32:21;33.90;;;17.60;;
67757;SDS011;54562;47.620;18.786;2023-12-20T08:35:27;33.60;;;15.70;;
67757;SDS011;54562;47.620;18.786;2023-12-20T08:38:33;31.30;;;16.60;;
67757;SDS011;54562;47.620;18.786;2023-12-20T08:41:43;38.40;;;17.00;;
67757;SDS011;54562;47.620;18.786;2023-12-20T08:44:52;42.10;;;16.60;;
67757;SDS011;54562;47.620;18.786;2023-12-20T08:48:00;36.70;;;15.90;;
67757;SDS011;54562;47.620;18.786;2023-12-20T08:51:13;39.40;;;15.40;;
67757;SDS011;54562;47.620;18.786;2023-12-20T08:54:28;30.10;;;16.00;;
67757;SDS011;54562;47.620;18.786;2023-12-20T08:57:48;30.80;;;15.40;;
67757;SDS011;54562;47.620;18.786;2023-12-20T09:00:57;32.60;;;17.00;;
67757;SDS011;54562;47.620;18.786;2023-12-20T09:04:07;33.60;;;18.90;;
67757;SDS011;54562;47.620;18.786;2023-12-20T09:07:25;33.70;;;17.80;;
67757;SDS011;54562;47.620;18.786;2023-12-20T09:10:36;32.10;;;16.10;;
67757;SDS011;54562;47.620;18.786;2023-12-20T09:13:45;33.80;;;16.60;;
67757;SDS011;54562;47.620;18.786;2023-12-20T09:16:56;33.40;;;17.70;;
67757;SDS011;54562;47.620;18.786;2023-12-20T09:20:13;32.10;;;17.70;;
67757;SDS011;54562;47.620;18.786;2023-12-20T09:23:22;33.70;;;17.80;;
67757;SDS011;54562;47.620;18.786;2023-12-20T09:26:29;35.40;;;18.10;;
67757;SDS011;54562;47.620;18.786;2023-12-20T09:29:39;35.20;;;19.20;;
67757;SDS011;54562;47.620;18.786;2023-12-20T09:32:49;37.00;;;19.80;;
67757;SDS011;54562;47.620;18.786;2023-12-20T09:35:57;36.00;;;17.30;;
67757;SDS011;54562;47.620;18.786;2023-12-20T09:39:05;35.30;;;18.90;;
67757;SDS011;54562;47.620;18.786;2023-12-20T09:42:12;38.00;;;20.10;;
67757;SDS011;54562;47.620;18.786;2023-12-20T09:45:31;34.40;;;18.20;;
67757;SDS011;54562;47.620;18.786;2023-12-20T09:48:41;35.50;;;18.90;;
67757;SDS011;54562;47.620;18.786;2023-12-20T09:54:56;33.00;;;16.90;;
67757;SDS011;54562;47.620;18.786;2023-12-20T09:58:06;31.90;;;17.10;;
67757;SDS011;54562;47.620;18.786;2023-12-20T10:01:14;31.50;;;17.40;;
67757;SDS011;54562;47.620;18.786;2023-12-20T10:04:27;35.40;;;19.10;;
67757;SDS011;54562;47.620;18.786;2023-12-20T10:07:37;37.00;;;19.80;;
67757;SDS011;54562;47.620;18.786;2023-12-20T10:10:50;37.90;;;21.40;;
67757;SDS011;54562;47.620;18.786;2023-12-20T10:14:00;33.20;;;18.80;;
67757;SDS011;54562;47.620;18.786;2023-12-20T10:17:13;34.00;;;18.40;;
67757;SDS011;54562;47.620;18.786;2023-12-20T10:20:25;33.10;;;18.00;;
67757;SDS011;54562;47.620;18.786;2023-12-20T10:23:34;32.20;;;18.60;;
67757;SDS011;54562;47.620;18.786;2023-12-20T10:26:44;34.70;;;18.80;;
67757;SDS011;54562;47.620;18.786;2023-12-20T10:29:57;34.80;;;18.20;;
67757;SDS011;54562;47.620;18.786;2023-12-20T10:33:08;29.10;;;18.10;;
67757;SDS011;54562;47.620;18.786;2023-12-20T10:36:18;31.70;;;17.80;;
67757;SDS011;54562;47.620;18.786;2023-12-20T10:39:29;34.10;;;18.50;;
67757;SDS011;54562;47.620;18.786;2023-12-20T10:42:50;32.90;;;17.90;;
67757;SDS011;54562;47.620;18.786;2023-12-20T10:45:58;32.20;;;17.40;;
67757;SDS011;54562;47.620;18.786;2023-12-20T10:49:04;30.30;;;17.70;;
67757;SDS011;54562;47.620;18.786;2023-12-20T10:52:11;31.30;;;17.90;;
67757;SDS011;54562;47.620;18.786;2023-12-20T10:55:18;32.40;;;18.20;;
67757;SDS011;54562;47.620;18.786;2023-12-20T10:58:24;31.50;;;17.70;;
67757;SDS011;54562;47.620;18.786;2023-12-20T11:01:34;29.80;;;16.60;;
67757;SDS011;54562;47.620;18.786;2023-12-20T11:04:44;31.30;;;18.00;;
67757;SDS011;54562;47.620;18.786;2023-12-20T11:08:02;28.80;;;16.30;;
67757;SDS011;54562;47.620;18.786;2023-12-20T11:11:24;29.90;;;17.50;;
67757;SDS011;54562;47.620;18.786;2023-12-20T11:14:38;36.10;;;18.30;;
67757;SDS011;54562;47.620;18.786;2023-12-20T11:17:56;30.20;;;17.00;;
67757;SDS011;54562;47.620;18.786;2023-12-20T11:21:07;26.80;;;16.00;;
67757;SDS011;54562;47.620;18.786;2023-12-20T11:24:17;26.60;;;15.40;;
67757;SDS011;54562;47.620;18.786;2023-12-20T11:27:41;27.20;;;15.80;;
67757;SDS011;54562;47.620;18.786;2023-12-20T11:31:00;28.10;;;15.00;;
67757;SDS011;54562;47.620;18.786;2023-12-20T11:34:21;26.00;;;15.50;;
67757;SDS011;54562;47.620;18.786;2023-12-20T11:37:35;26.70;;;15.90;;
67757;SDS011;54562;47.620;18.786;2023-12-20T11:40:51;28.90;;;16.30;;
67757;SDS011;54562;47.620;18.786;2023-12-20T11:44:12;29.00;;;16.70;;
67757;SDS011;54562;47.620;18.786;2023-12-20T11:47:20;33.10;;;18.20;;
67757;SDS011;54562;47.620;18.786;2023-12-20T11:50:32;30.00;;;17.00;;
67757;SDS011;54562;47.620;18.786;2023-12-20T11:53:46;35.70;;;18.30;;
67757;SDS011;54562;47.620;18.786;2023-12-20T11:57:01;33.70;;;17.80;;
67757;SDS011;54562;47.620;18.786;2023-12-20T12:00:12;34.00;;;18.00;;
67757;SDS011;54562;47.620;18.786;2023-12-20T12:03:26;35.70;;;18.60;;
67757;SDS011;54562;47.620;18.786;2023-12-20T12:06:39;30.70;;;16.10;;
67757;SDS011;54562;47.620;18.786;2023-12-20T12:09:50;32.20;;;17.50;;
67757;SDS011;54562;47.620;18.786;2023-12-20T12:13:00;31.10;;;17.00;;
67757;SDS011;54562;47.620;18.786;2023-12-20T12:16:16;32.60;;;17.80;;
67757;SDS011;54562;47.620;18.786;2023-12-20T12:19:27;35.10;;;19.20;;
67757;SDS011;54562;47.620;18.786;2023-12-20T12:22:41;34.60;;;18.60;;
67757;SDS011;54562;47.620;18.786;2023-12-20T12:25:52;32.50;;;18.00;;
67757;SDS011;54562;47.620;18.786;2023-12-20T12:29:01;31.30;;;18.00;;
67757;SDS011;54562;47.620;18.786;2023-12-20T12:32:11;33.10;;;18.50;;
67757;SDS011;54562;47.620;18.786;2023-12-20T12:35:19;32.00;;;17.60;;
67757;SDS011;54562;47.620;18.786;2023-12-20T12:38:27;29.80;;;16.00;;
67757;SDS011;54562;47.620;18.786;2023-12-20T12:41:35;31.00;;;17.60;;
67757;SDS011;54562;47.620;18.786;2023-12-20T12:44:43;31.30;;;17.60;;
67757;SDS011;54562;47.620;18.786;2023-12-20T12:47:51;30.50;;;15.80;;
67757;SDS011;54562;47.620;18.786;2023-12-20T12:51:01;28.10;;;16.00;;
67757;SDS011;54562;47.620;18.786;2023-12-20T12:54:12;25.30;;;14.30;;
67757;SDS011;54562;47.620;18.786;2023-12-20T12:57:30;31.10;;;15.80;;
67757;SDS011;54562;47.620;18.786;2023-12-20T13:00:38;25.80;;;14.60;;
67757;SDS011;54562;47.620;18.786;2023-12-20T13:03:47;22.80;;;12.70;;
67757;SDS011;54562;47.620;18.786;2023-12-20T13:06:55;24.40;;;12.40;;
67757;SDS011;54562;47.620;18.786;2023-12-20T13:10:05;21.40;;;11.10;;
67757;SDS011;54562;47.620;18.786;2023-12-20T13:13:16;18.70;;;10.70;;
67757;SDS011;54562;47.620;18.786;2023-12-20T13:16:25;20.80;;;11.50;;
67757;SDS011;54562;47.620;18.786;2023-12-20T13:19:36;25.00;;;13.50;;
67757;SDS011;54562;47.620;18.786;2023-12-20T13:22:46;31.00;;;14.70;;
67757;SDS011;54562;47.620;18.786;2023-12-20T13:25:55;35.20;;;17.70;;
67757;SDS011;54562;47.620;18.786;2023-12-20T13:29:03;34.50;;;17.00;;
67757;SDS011;54562;47.620;18.786;2023-12-20T13:32:11;35.70;;;17.80;;
67757;SDS011;54562;47.620;18.786;2023-12-20T13:35:20;34.90;;;16.40;;
67757;SDS011;54562;47.620;18.786;2023-12-20T13:38:28;28.40;;;15.10;;
67757;SDS011;54562;47.620;18.786;2023-12-20T13:41:36;23.50;;;12.60;;
67757;SDS011;54562;47.620;18.786;2023-12-20T13:44:46;23.10;;;11.40;;
67757;SDS011;54562;47.620;18.786;2023-12-20T13:47:55;22.10;;;11.00;;
67757;SDS011;54562;47.620;18.786;2023-12-20T13:51:05;20.70;;;11.00;;
67757;SDS011;54562;47.620;18.786;2023-12-20T13:54:15;17.30;;;9.20;;
67757;SDS011;54562;47.620;18.786;2023-12-20T13:57:27;17.40;;;8.40;;
67757;SDS011;54562;47.620;18.786;2023-12-20T14:00:54;16.40;;;9.50;;
67757;SDS011;54562;47.620;18.786;2023-12-20T14:04:03;14.00;;;7.90;;
67757;SDS011;54562;47.620;18.786;2023-12-20T14:07:13;19.20;;;9.10;;
67757;SDS011;54562;47.620;18.786;2023-12-20T14:10:23;17.90;;;9.70;;
67757;SDS011;54562;47.620;18.786;2023-12-20T14:13:32;18.90;;;10.20;;
67757;SDS011;54562;47.620;18.786;2023-12-20T14:16:41;18.10;;;8.50;;
67757;SDS011;54562;47.620;18.786;2023-12-20T14:19:50;17.20;;;9.70;;
67757;SDS011;54562;47.620;18.786;2023-12-20T14:23:00;18.50;;;9.70;;
67757;SDS011;54562;47.620;18.786;2023-12-20T14:26:10;15.30;;;9.10;;
67757;SDS011;54562;47.620;18.786;2023-12-20T14:29:19;17.20;;;9.20;;
67757;SDS011;54562;47.620;18.786;2023-12-20T14:32:30;19.10;;;9.40;;
67757;SDS011;54562;47.620;18.786;2023-12-20T14:35:40;18.50;;;9.80;;
67757;SDS011;54562;47.620;18.786;2023-12-20T14:38:50;19.80;;;10.50;;
67757;SDS011;54562;47.620;18.786;2023-12-20T14:41:59;19.80;;;9.70;;
67757;SDS011;54562;47.620;18.786;2023-12-20T14:45:11;17.90;;;8.90;;
67757;SDS011;54562;47.620;18.786;2023-12-20T14:48:20;15.20;;;8.10;;
67757;SDS011;54562;47.620;18.786;2023-12-20T14:51:30;19.30;;;10.60;;
67757;SDS011;54562;47.620;18.786;2023-12-20T14:54:45;17.40;;;9.40;;
67757;SDS011;54562;47.620;18.786;2023-12-20T14:57:55;17.10;;;9.10;;
67757;SDS011;54562;47.620;18.786;2023-12-20T15:01:08;19.80;;;10.60;;
67757;SDS011;54562;47.620;18.786;2023-12-20T15:04:17;19.10;;;10.20;;
67757;SDS011;54562;47.620;18.786;2023-12-20T15:07:38;18.60;;;10.60;;
67757;SDS011;54562;47.620;18.786;2023-12-20T15:10:48;19.30;;;10.20;;
67757;SDS011;54562;47.620;18.786;2023-12-20T15:13:56;13.90;;;8.10;;
67757;SDS011;54562;47.620;18.786;2023-12-20T15:17:06;17.80;;;9.40;;
67757;SDS011;54562;47.620;18.786;2023-12-20T15:20:15;20.10;;;9.90;;
67757;SDS011;54562;47.620;18.786;2023-12-20T15:23:24;20.50;;;11.30;;
67757;SDS011;54562;47.620;18.786;2023-12-20T15:26:37;17.20;;;9.10;;
67757;SDS011;54562;47.620;18.786;2023-12-20T15:29:47;15.30;;;7.90;;
67757;SDS011;54562;47.620;18.786;2023-12-20T15:36:08;17.60;;;9.80;;
67757;SDS011;54562;47.620;18.786;2023-12-20T15:39:22;17.00;;;9.30;;
67757;SDS011;54562;47.620;18.786;2023-12-20T15:42:33;18.50;;;10.00;;
67757;SDS011;54562;47.620;18.786;2023-12-20T15:45:44;17.80;;;10.30;;
67757;SDS011;54562;47.620;18.786;2023-12-20T15:48:57;22.60;;;13.90;;
67757;SDS011;54562;47.620;18.786;2023-12-20T15:52:09;26.40;;;13.90;;
67757;SDS011;54562;47.620;18.786;2023-12-20T15:55:20;27.90;;;14.10;;
67757;SDS011;54562;47.620;18.786;2023-12-20T15:58:29;22.60;;;12.40;;
67757;SDS011;54562;47.620;18.786;2023-12-20T16:01:41;24.00;;;13.50;;
67757;SDS011;54562;47.620;18.786;2023-12-20T16:05:04;27.30;;;16.00;;
67757;SDS011;54562;47.620;18.786;2023-12-20T16:08:12;21.40;;;12.20;;
67757;SDS011;54562;47.620;18.786;2023-12-20T16:11:24;19.80;;;9.80;;
67757;SDS011;54562;47.620;18.786;2023-12-20T16:14:36;23.20;;;11.90;;
67757;SDS011;54562;47.620;18.786;2023-12-20T16:17:44;25.00;;;13.20;;
67757;SDS011;54562;47.620;18.786;2023-12-20T16:20:54;29.40;;;15.90;;
67757;SDS011;54562;47.620;18.786;2023-12-20T16:24:06;29.20;;;16.00;;
67757;SDS011;54562;47.620;18.786;2023-12-20T16:27:16;32.20;;;17.60;;
67757;SDS011;54562;47.620;18.786;2023-12-20T16:30:39;32.50;;;17.30;;
67757;SDS011;54562;47.620;18.786;2023-12-20T16:33:46;30.90;;;17.10;;
67757;SDS011;54562;47.620;18.786;2023-12-20T16:36:56;30.30;;;17.10;;
67757;SDS011;54562;47.620;18.786;2023-12-20T16:40:07;29.00;;;15.80;;
67757;SDS011;54562;47.620;18.786;2023-12-20T16:43:15;30.50;;;16.00;;
67757;SDS011;54562;47.620;18.786;2023-12-20T16:46:24;31.40;;;16.60;;
67757;SDS011;54562;47.620;18.786;2023-12-20T16:49:33;26.30;;;15.00;;
67757;SDS011;54562;47.620;18.786;2023-12-20T16:52:42;19.70;;;11.00;;
67757;SDS011;54562;47.620;18.786;2023-12-20T16:55:55;26.00;;;13.30;;
67757;SDS011;54562;47.620;18.786;2023-12-20T16:59:04;24.80;;;14.10;;
67757;SDS011;54562;47.620;18.786;2023-12-20T17:02:13;25.80;;;14.10;;
67757;SDS011;54562;47.620;18.786;2023-12-20T17:05:20;25.70;;;14.90;;
67757;SDS011;54562;47.620;18.786;2023-12-20T17:08:31;22.50;;;12.30;;
67757;SDS011;54562;47.620;18.786;2023-12-20T17:11:41;24.50;;;14.10;;
67757;SDS011;54562;47.620;18.786;2023-12-20T17:14:49;38.40;;;22.20;;
67757;SDS011;54562;47.620;18.786;2023-12-20T17:17:58;35.00;;;22.40;;
67757;SDS011;54562;47.620;18.786;2023-12-20T17:21:10;49.10;;;27.90;;
67757;SDS011;54562;47.620;18.786;2023-12-20T17:24:19;40.50;;;22.50;;
67757;SDS011;54562;47.620;18.786;2023-12-20T17:27:27;40.30;;;21.20;;
67757;SDS011;54562;47.620;18.786;2023-12-20T17:30:40;40.80;;;21.40;;
67757;SDS011;54562;47.620;18.786;2023-12-20T17:33:51;41.20;;;23.40;;
67757;SDS011;54562;47.620;18.786;2023-12-20T17:36:59;36.50;;;21.20;;
67757;SDS011;54562;47.620;18.786;2023-12-20T17:40:10;31.50;;;19.20;;
67757;SDS011;54562;47.620;18.786;2023-12-20T17:43:20;33.90;;;19.90;;
67757;SDS011;54562;47.620;18.786;2023-12-20T17:46:29;32.00;;;17.80;;
67757;SDS011;54562;47.620;18.786;2023-12-20T17:49:38;27.60;;;15.90;;
67757;SDS011;54562;47.620;18.786;2023-12-20T17:52:49;28.50;;;17.00;;
67757;SDS011;54562;47.620;18.786;2023-12-20T17:55:59;25.20;;;14.60;;
67757;SDS011;54562;47.620;18.786;2023-12-20T17:59:07;25.70;;;14.50;;
67757;SDS011;54562;47.620;18.786;2023-12-20T18:02:17;28.80;;;15.90;;
67757;SDS011;54562;47.620;18.786;2023-12-20T18:05:36;30.70;;;17.60;;
67757;SDS011;54562;47.620;18.786;2023-12-20T18:08:45;39.60;;;20.70;;
67757;SDS011;54562;47.620;18.786;2023-12-20T18:11:56;31.30;;;17.60;;
67757;SDS011;54562;47.620;18.786;2023-12-20T18:15:14;26.10;;;15.20;;
67757;SDS011;54562;47.620;18.786;2023-12-20T18:18:27;22.00;;;13.80;;
67757;SDS011;54562;47.620;18.786;2023-12-20T18:21:35;16.50;;;9.20;;
67757;SDS011;54562;47.620;18.786;2023-12-20T18:24:45;14.40;;;8.40;;
67757;SDS011;54562;47.620;18.786;2023-12-20T18:27:56;14.70;;;7.90;;